sensor_id;sensor_type;location;lat;lon;timestamp;temperature;humidity
67188;DHT22;54117;53.532;49.426;2022-10-31T00:01:14;9.10;96.10
67188;DHT22;54117;53.532;49.426;2022-10-31T00:03:40;9.10;96.10
67188;DHT22;54117;53.532;49.426;2022-10-31T00:06:06;9.10;96.20
67188;DHT22;54117;53.532;49.426;2022-10-31T00:08:33;9.10;96.10
67188;DHT22;54117;53.532;49.426;2022-10-31T00:10:59;9.10;96.00
67188;DHT22;54117;53.532;49.426;2022-10-31T00:13:26;9.10;95.80
67188;DHT22;54117;53.532;49.426;2022-10-31T00:15:52;9.10;95.80
67188;DHT22;54117;53.532;49.426;2022-10-31T00:18:19;9.20;95.80
67188;DHT22;54117;53.532;49.426;2022-10-31T00:20:45;9.10;95.80
67188;DHT22;54117;53.532;49.426;2022-10-31T00:23:12;9.20;95.70
67188;DHT22;54117;53.532;49.426;2022-10-31T00:25:39;9.10;95.60
67188;DHT22;54117;53.532;49.426;2022-10-31T00:28:08;9.10;95.50
67188;DHT22;54117;53.532;49.426;2022-10-31T00:30:36;9.10;95.40
67188;DHT22;54117;53.532;49.426;2022-10-31T00:33:06;9.10;95.10
67188;DHT22;54117;53.532;49.426;2022-10-31T00:35:32;9.10;94.80
67188;DHT22;54117;53.532;49.426;2022-10-31T00:37:59;9.10;94.70
67188;DHT22;54117;53.532;49.426;2022-10-31T00:40:25;9.10;94.60
67188;DHT22;54117;53.532;49.426;2022-10-31T00:42:51;9.00;94.20
67188;DHT22;54117;53.532;49.426;2022-10-31T00:45:18;9.00;93.90
67188;DHT22;54117;53.532;49.426;2022-10-31T00:47:44;9.00;93.30
67188;DHT22;54117;53.532;49.426;2022-10-31T00:50:11;8.90;91.90
67188;DHT22;54117;53.532;49.426;2022-10-31T00:52:37;8.80;92.30
67188;DHT22;54117;53.532;49.426;2022-10-31T00:55:04;8.80;92.20
67188;DHT22;54117;53.532;49.426;2022-10-31T00:57:30;8.70;91.90
67188;DHT22;54117;53.532;49.426;2022-10-31T00:59:56;8.60;92.00
67188;DHT22;54117;53.532;49.426;2022-10-31T01:02:23;8.50;91.90
67188;DHT22;54117;53.532;49.426;2022-10-31T01:04:49;8.50;92.00
67188;DHT22;54117;53.532;49.426;2022-10-31T01:07:15;8.40;92.00
67188;DHT22;54117;53.532;49.426;2022-10-31T01:09:42;8.40;92.10
67188;DHT22;54117;53.532;49.426;2022-10-31T01:12:08;8.30;92.10
67188;DHT22;54117;53.532;49.426;2022-10-31T01:14:35;8.30;92.00
67188;DHT22;54117;53.532;49.426;2022-10-31T01:17:01;8.30;91.90
67188;DHT22;54117;53.532;49.426;2022-10-31T01:19:30;8.20;91.90
67188;DHT22;54117;53.532;49.426;2022-10-31T01:21:57;8.10;91.70
67188;DHT22;54117;53.532;49.426;2022-10-31T01:24:23;8.10;91.70
67188;DHT22;54117;53.532;49.426;2022-10-31T01:26:50;8.00;91.80
67188;DHT22;54117;53.532;49.426;2022-10-31T01:29:16;8.00;91.70
67188;DHT22;54117;53.532;49.426;2022-10-31T01:31:42;7.90;91.60
67188;DHT22;54117;53.532;49.426;2022-10-31T01:34:14;7.90;91.70
67188;DHT22;54117;53.532;49.426;2022-10-31T01:57:48;7.50;92.20
67188;DHT22;54117;53.532;49.426;2022-10-31T02:00:16;7.50;92.10
67188;DHT22;54117;53.532;49.426;2022-10-31T02:02:45;7.40;91.90
67188;DHT22;54117;53.532;49.426;2022-10-31T02:05:18;7.40;91.80
67188;DHT22;54117;53.532;49.426;2022-10-31T02:10:36;7.30;91.50
67188;DHT22;54117;53.532;49.426;2022-10-31T02:13:06;7.20;91.30
67188;DHT22;54117;53.532;49.426;2022-10-31T02:15:33;7.20;91.40
67188;DHT22;54117;53.532;49.426;2022-10-31T02:18:01;7.20;91.10
67188;DHT22;54117;53.532;49.426;2022-10-31T02:34:58;6.90;90.80
67188;DHT22;54117;53.532;49.426;2022-10-31T02:37:44;6.90;90.60
67188;DHT22;54117;53.532;49.426;2022-10-31T02:45:59;6.80;90.50
67188;DHT22;54117;53.532;49.426;2022-10-31T02:51:11;6.80;90.60
67188;DHT22;54117;53.532;49.426;2022-10-31T02:53:41;6.80;90.80
67188;DHT22;54117;53.532;49.426;2022-10-31T02:56:15;6.80;90.80
67188;DHT22;54117;53.532;49.426;2022-10-31T02:58:56;6.70;90.90
67188;DHT22;54117;53.532;49.426;2022-10-31T03:52:37;5.80;87.60
67188;DHT22;54117;53.532;49.426;2022-10-31T03:55:17;5.80;88.40
67188;DHT22;54117;53.532;49.426;2022-10-31T03:57:55;5.70;87.90
67188;DHT22;54117;53.532;49.426;2022-10-31T04:03:14;5.80;87.30
67188;DHT22;54117;53.532;49.426;2022-10-31T04:05:43;5.80;87.50
67188;DHT22;54117;53.532;49.426;2022-10-31T04:08:15;5.80;87.50
67188;DHT22;54117;53.532;49.426;2022-10-31T04:10:44;5.90;87.20
67188;DHT22;54117;53.532;49.426;2022-10-31T04:13:16;5.90;87.10
67188;DHT22;54117;53.532;49.426;2022-10-31T04:15:45;5.90;86.70
67188;DHT22;54117;53.532;49.426;2022-10-31T05:30:29;6.20;83.10
67188;DHT22;54117;53.532;49.426;2022-10-31T05:32:56;6.20;82.60
67188;DHT22;54117;53.532;49.426;2022-10-31T05:35:26;6.10;82.60
67188;DHT22;54117;53.532;49.426;2022-10-31T05:37:54;6.20;82.40
67188;DHT22;54117;53.532;49.426;2022-10-31T05:40:21;6.30;82.10
67188;DHT22;54117;53.532;49.426;2022-10-31T05:42:51;6.30;80.90
67188;DHT22;54117;53.532;49.426;2022-10-31T05:45:20;6.30;79.90
67188;DHT22;54117;53.532;49.426;2022-10-31T05:47:58;6.40;79.70
67188;DHT22;54117;53.532;49.426;2022-10-31T05:50:26;6.40;80.20
67188;DHT22;54117;53.532;49.426;2022-10-31T05:53:03;6.50;79.60
67188;DHT22;54117;53.532;49.426;2022-10-31T05:55:35;6.50;79.20
67188;DHT22;54117;53.532;49.426;2022-10-31T05:58:14;6.50;77.80
67188;DHT22;54117;53.532;49.426;2022-10-31T06:03:32;6.50;77.90
67188;DHT22;54117;53.532;49.426;2022-10-31T06:08:46;6.60;77.60
67188;DHT22;54117;53.532;49.426;2022-10-31T06:13:58;6.80;76.40
67188;DHT22;54117;53.532;49.426;2022-10-31T06:16:25;6.80;76.10
67188;DHT22;54117;53.532;49.426;2022-10-31T06:19:02;6.90;75.60
67188;DHT22;54117;53.532;49.426;2022-10-31T06:24:38;6.90;74.50
67188;DHT22;54117;53.532;49.426;2022-10-31T06:29:50;6.90;74.20
67188;DHT22;54117;53.532;49.426;2022-10-31T06:32:17;7.00;73.90
67188;DHT22;54117;53.532;49.426;2022-10-31T06:35:05;7.00;73.50
67188;DHT22;54117;53.532;49.426;2022-10-31T06:37:33;7.10;73.40
67188;DHT22;54117;53.532;49.426;2022-10-31T06:43:17;7.20;72.80
67188;DHT22;54117;53.532;49.426;2022-10-31T06:45:48;7.30;72.70
67188;DHT22;54117;53.532;49.426;2022-10-31T06:48:15;7.30;71.70
67188;DHT22;54117;53.532;49.426;2022-10-31T06:53:46;7.10;71.60
67188;DHT22;54117;53.532;49.426;2022-10-31T06:56:12;7.10;71.20
67188;DHT22;54117;53.532;49.426;2022-10-31T06:58:39;7.00;71.60
67188;DHT22;54117;53.532;49.426;2022-10-31T07:06:55;7.00;71.90
67188;DHT22;54117;53.532;49.426;2022-10-31T07:12:25;7.00;71.30
67188;DHT22;54117;53.532;49.426;2022-10-31T07:15:11;7.00;70.90
67188;DHT22;54117;53.532;49.426;2022-10-31T07:17:37;6.90;71.00
67188;DHT22;54117;53.532;49.426;2022-10-31T07:20:05;6.90;70.70
67188;DHT22;54117;53.532;49.426;2022-10-31T07:22:36;6.90;70.60
67188;DHT22;54117;53.532;49.426;2022-10-31T07:25:04;6.80;70.50
67188;DHT22;54117;53.532;49.426;2022-10-31T07:30:24;6.70;71.40
67188;DHT22;54117;53.532;49.426;2022-10-31T07:33:09;6.80;71.50
67188;DHT22;54117;53.532;49.426;2022-10-31T07:35:36;6.70;70.60
67188;DHT22;54117;53.532;49.426;2022-10-31T07:40:55;6.60;71.00
67188;DHT22;54117;53.532;49.426;2022-10-31T07:43:48;6.60;71.00
67188;DHT22;54117;53.532;49.426;2022-10-31T07:46:15;6.60;70.40
67188;DHT22;54117;53.532;49.426;2022-10-31T07:48:42;6.60;70.30
67188;DHT22;54117;53.532;49.426;2022-10-31T07:54:12;6.50;69.90
67188;DHT22;54117;53.532;49.426;2022-10-31T07:56:57;6.40;69.70
67188;DHT22;54117;53.532;49.426;2022-10-31T07:59:24;6.30;70.40
67188;DHT22;54117;53.532;49.426;2022-10-31T08:04:36;6.40;71.20
67188;DHT22;54117;53.532;49.426;2022-10-31T08:07:03;6.50;71.30
67188;DHT22;54117;53.532;49.426;2022-10-31T08:09:29;6.50;71.30
67188;DHT22;54117;53.532;49.426;2022-10-31T08:14:41;6.50;70.20
67188;DHT22;54117;53.532;49.426;2022-10-31T08:19:53;6.60;70.00
67188;DHT22;54117;53.532;49.426;2022-10-31T08:27:55;6.90;68.30
67188;DHT22;54117;53.532;49.426;2022-10-31T08:33:12;7.20;68.20
67188;DHT22;54117;53.532;49.426;2022-10-31T08:35:39;7.40;67.60
67188;DHT22;54117;53.532;49.426;2022-10-31T08:38:07;7.40;67.00
67188;DHT22;54117;53.532;49.426;2022-10-31T08:43:20;7.60;67.10
67188;DHT22;54117;53.532;49.426;2022-10-31T08:48:35;8.00;66.20
67188;DHT22;54117;53.532;49.426;2022-10-31T08:51:02;8.00;65.60
67188;DHT22;54117;53.532;49.426;2022-10-31T08:53:28;8.10;65.50
67188;DHT22;54117;53.532;49.426;2022-10-31T08:55:56;8.20;65.30
67188;DHT22;54117;53.532;49.426;2022-10-31T08:58:23;8.30;65.10
67188;DHT22;54117;53.532;49.426;2022-10-31T09:00:52;8.30;64.80
67188;DHT22;54117;53.532;49.426;2022-10-31T09:03:25;8.50;64.30
67188;DHT22;54117;53.532;49.426;2022-10-31T09:05:55;8.50;63.60
67188;DHT22;54117;53.532;49.426;2022-10-31T09:08:22;8.60;63.70
67188;DHT22;54117;53.532;49.426;2022-10-31T09:10:49;8.70;63.20
67188;DHT22;54117;53.532;49.426;2022-10-31T09:13:18;8.70;62.80
67188;DHT22;54117;53.532;49.426;2022-10-31T09:15:46;8.60;63.40
67188;DHT22;54117;53.532;49.426;2022-10-31T09:18:15;8.70;63.20
67188;DHT22;54117;53.532;49.426;2022-10-31T09:20:44;8.80;61.60
67188;DHT22;54117;53.532;49.426;2022-10-31T09:23:13;8.90;61.60
67188;DHT22;54117;53.532;49.426;2022-10-31T09:25:41;8.90;61.40
67188;DHT22;54117;53.532;49.426;2022-10-31T09:28:11;8.80;61.50
67188;DHT22;54117;53.532;49.426;2022-10-31T09:30:38;8.90;60.90
67188;DHT22;54117;53.532;49.426;2022-10-31T09:33:23;8.80;60.90
67188;DHT22;54117;53.532;49.426;2022-10-31T09:35:50;8.70;60.80
67188;DHT22;54117;53.532;49.426;2022-10-31T09:38:21;8.60;61.20
67188;DHT22;54117;53.532;49.426;2022-10-31T09:59:00;7.50;61.60
67188;DHT22;54117;53.532;49.426;2022-10-31T10:17:11;7.60;61.00
67188;DHT22;54117;53.532;49.426;2022-10-31T10:20:04;7.60;60.00
67188;DHT22;54117;53.532;49.426;2022-10-31T10:22:37;7.70;59.50
67188;DHT22;54117;53.532;49.426;2022-10-31T10:25:26;7.70;59.60
67188;DHT22;54117;53.532;49.426;2022-10-31T10:30:44;7.80;60.90
67188;DHT22;54117;53.532;49.426;2022-10-31T10:35:52;8.00;60.70
67188;DHT22;54117;53.532;49.426;2022-10-31T10:38:49;8.00;60.30
67188;DHT22;54117;53.532;49.426;2022-10-31T10:41:20;8.10;59.30
67188;DHT22;54117;53.532;49.426;2022-10-31T10:43:53;8.00;59.30
67188;DHT22;54117;53.532;49.426;2022-10-31T10:46:38;8.00;59.30
67188;DHT22;54117;53.532;49.426;2022-10-31T10:49:46;7.90;59.30
67188;DHT22;54117;53.532;49.426;2022-10-31T10:52:46;7.90;59.60
67188;DHT22;54117;53.532;49.426;2022-10-31T10:55:32;7.90;59.40
67188;DHT22;54117;53.532;49.426;2022-10-31T10:58:09;7.90;59.70
67188;DHT22;54117;53.532;49.426;2022-10-31T11:00:42;7.90;59.30
67188;DHT22;54117;53.532;49.426;2022-10-31T11:03:17;7.80;58.70
67188;DHT22;54117;53.532;49.426;2022-10-31T11:08:27;7.60;58.50
67188;DHT22;54117;53.532;49.426;2022-10-31T11:11:28;7.50;58.90
67188;DHT22;54117;53.532;49.426;2022-10-31T11:14:04;7.40;59.60
67188;DHT22;54117;53.532;49.426;2022-10-31T11:16:38;7.40;60.00
67188;DHT22;54117;53.532;49.426;2022-10-31T11:21:41;7.40;59.60
67188;DHT22;54117;53.532;49.426;2022-10-31T11:24:18;7.40;59.80
67188;DHT22;54117;53.532;49.426;2022-10-31T11:26:47;7.50;59.40
67188;DHT22;54117;53.532;49.426;2022-10-31T11:29:23;7.50;59.60
67188;DHT22;54117;53.532;49.426;2022-10-31T11:31:56;7.50;59.10
67188;DHT22;54117;53.532;49.426;2022-10-31T11:34:26;7.50;57.90
67188;DHT22;54117;53.532;49.426;2022-10-31T11:36:54;7.40;58.10
67188;DHT22;54117;53.532;49.426;2022-10-31T11:39:24;7.30;58.30
67188;DHT22;54117;53.532;49.426;2022-10-31T11:41:53;7.30;58.20
67188;DHT22;54117;53.532;49.426;2022-10-31T11:44:29;7.30;58.40
67188;DHT22;54117;53.532;49.426;2022-10-31T11:46:58;7.30;58.30
67188;DHT22;54117;53.532;49.426;2022-10-31T11:49:38;7.30;58.40
67188;DHT22;54117;53.532;49.426;2022-10-31T11:52:22;7.20;58.30
67188;DHT22;54117;53.532;49.426;2022-10-31T11:55:13;7.20;58.70
67188;DHT22;54117;53.532;49.426;2022-10-31T11:57:54;7.20;59.40
67188;DHT22;54117;53.532;49.426;2022-10-31T12:06:15;7.10;60.10
67188;DHT22;54117;53.532;49.426;2022-10-31T12:08:44;7.00;60.10
67188;DHT22;54117;53.532;49.426;2022-10-31T12:16:50;6.80;60.40
67188;DHT22;54117;53.532;49.426;2022-10-31T12:40:02;6.30;63.30
67188;DHT22;54117;53.532;49.426;2022-10-31T12:42:37;6.20;63.80
67188;DHT22;54117;53.532;49.426;2022-10-31T12:50:51;6.20;64.30
67188;DHT22;54117;53.532;49.426;2022-10-31T13:01:47;6.00;65.40
67188;DHT22;54117;53.532;49.426;2022-10-31T13:04:17;6.00;65.60
67188;DHT22;54117;53.532;49.426;2022-10-31T13:06:51;5.90;65.80
67188;DHT22;54117;53.532;49.426;2022-10-31T13:12:28;5.70;66.50
67188;DHT22;54117;53.532;49.426;2022-10-31T13:15:31;5.70;66.90
67188;DHT22;54117;53.532;49.426;2022-10-31T13:21:33;5.70;67.50
67188;DHT22;54117;53.532;49.426;2022-10-31T13:24:11;5.70;67.70
67188;DHT22;54117;53.532;49.426;2022-10-31T13:27:09;5.70;67.80
67188;DHT22;54117;53.532;49.426;2022-10-31T13:30:21;5.70;67.80
67188;DHT22;54117;53.532;49.426;2022-10-31T13:35:51;5.70;67.70
67188;DHT22;54117;53.532;49.426;2022-10-31T13:38:42;5.70;67.70
67188;DHT22;54117;53.532;49.426;2022-10-31T13:44:27;5.70;68.10
67188;DHT22;54117;53.532;49.426;2022-10-31T13:47:01;5.70;68.10
67188;DHT22;54117;53.532;49.426;2022-10-31T13:49:48;5.70;68.20
67188;DHT22;54117;53.532;49.426;2022-10-31T13:52:28;5.60;68.50
67188;DHT22;54117;53.532;49.426;2022-10-31T13:54:56;5.60;68.60
67188;DHT22;54117;53.532;49.426;2022-10-31T13:57:44;5.60;68.70
67188;DHT22;54117;53.532;49.426;2022-10-31T14:00:26;5.60;69.00
67188;DHT22;54117;53.532;49.426;2022-10-31T14:03:00;5.50;69.50
67188;DHT22;54117;53.532;49.426;2022-10-31T14:05:38;5.60;69.50
67188;DHT22;54117;53.532;49.426;2022-10-31T14:08:22;5.50;69.50
67188;DHT22;54117;53.532;49.426;2022-10-31T14:10:52;5.50;69.80
67188;DHT22;54117;53.532;49.426;2022-10-31T14:13:34;5.50;69.90
67188;DHT22;54117;53.532;49.426;2022-10-31T14:16:19;5.50;70.00
67188;DHT22;54117;53.532;49.426;2022-10-31T14:18:51;5.50;70.10
67188;DHT22;54117;53.532;49.426;2022-10-31T14:33:44;5.50;70.40
